📊 Raw Sensor Data
Showing records 51276 to 51300 of 85,146 total
| ID | Distance (ft) | Battery V | Battery A | Int Temp (°F) | Int Humid (%) | Ext Temp (°F) | Solar V | RSSI | SNR | Time Stamp |
|---|---|---|---|---|---|---|---|---|---|---|
| 33883 | 14.7 | 4.00 | -5 | 49 | 42 | 50 | 0.90 | -75 | 8 | 03/02/2025 06:15 PM |
| 33882 | 14.8 | 3.99 | -10 | 50 | 42 | 49 | 2.20 | -78 | 8 | 03/02/2025 06:00 PM |
| 33881 | 14.8 | 3.97 | 5 | 52 | 42 | 49 | 4.50 | -75 | 8 | 03/02/2025 05:45 PM |
| 33880 | 14.7 | 4.04 | 0 | 53 | 44 | 50 | 4.50 | -76 | 8 | 03/02/2025 05:30 PM |
| 33879 | 14.8 | 4.03 | 21 | 54 | 44 | 51 | 4.50 | -76 | 7 | 03/02/2025 05:15 PM |
| 33878 | 14.8 | 4.05 | 0 | 57 | 45 | 51 | 4.50 | -74 | 7 | 03/02/2025 05:00 PM |
| 33877 | 14.9 | 3.99 | 6 | 68 | 39 | 56 | 5.10 | -73 | 7 | 03/02/2025 04:45 PM |
| 33876 | 14.9 | 3.99 | 5 | 68 | 38 | 61 | 5.10 | -73 | 7 | 03/02/2025 04:30 PM |
| 33875 | 14.8 | 3.99 | 0 | 70 | 37 | 62 | 5.10 | -76 | 8 | 03/02/2025 04:15 PM |
| 33874 | 14.9 | 3.99 | 0 | 71 | 36 | 63 | 5.10 | -74 | 7 | 03/02/2025 04:00 PM |
| 33873 | 14.9 | 3.99 | 0 | 69 | 36 | 61 | 5.10 | -74 | 8 | 03/02/2025 03:45 PM |
| 33872 | 14.8 | 3.99 | 0 | 67 | 37 | 61 | 5.10 | -75 | 7 | 03/02/2025 03:30 PM |
| 33871 | 14.8 | 4.07 | 6 | 64 | 38 | 60 | 5.10 | -75 | 8 | 03/02/2025 03:15 PM |
| 33870 | 14.8 | 3.99 | 6 | 62 | 40 | 59 | 5.10 | -73 | 7 | 03/02/2025 03:00 PM |
| 33869 | 14.8 | 3.99 | 0 | 63 | 40 | 60 | 5.10 | -72 | 7 | 03/02/2025 02:45 PM |
| 33868 | 14.8 | 3.99 | 0 | 61 | 41 | 59 | 5.10 | -71 | 7 | 03/02/2025 02:30 PM |
| 33867 | 14.8 | 4.13 | 6 | 61 | 42 | 58 | 5.10 | -74 | 7 | 03/02/2025 02:15 PM |
| 33866 | 14.8 | 4.13 | 5 | 63 | 42 | 59 | 5.10 | -72 | 7 | 03/02/2025 02:00 PM |
| 33865 | 15.0 | 3.99 | 6 | 68 | 38 | 62 | 5.10 | -74 | 7 | 03/02/2025 01:45 PM |
| 33864 | 14.9 | 3.98 | 0 | 70 | 36 | 62 | 5.10 | -72 | 8 | 03/02/2025 01:30 PM |
| 33863 | 14.9 | 3.98 | 0 | 66 | 38 | 63 | 5.10 | -73 | 8 | 03/02/2025 01:15 PM |
| 33862 | 14.8 | 3.98 | 0 | 56 | 44 | 56 | 5.10 | -77 | 7 | 03/02/2025 01:00 PM |
| 33861 | 14.8 | 4.12 | 84 | 54 | 46 | 51 | 4.50 | -77 | 7 | 03/02/2025 12:45 PM |
| 33860 | 15.0 | 4.02 | 6 | 64 | 39 | 57 | 4.50 | -73 | 7 | 03/02/2025 12:30 PM |
| 33859 | 15.0 | 3.97 | 6 | 70 | 36 | 64 | 5.10 | -74 | 7 | 03/02/2025 12:15 PM |